Time;durP1;ratioP1;P1;durP2;ratioP2;P2;SDS_P1;SDS_P2;PMS_P1;PMS_P2;Temp;Humidity;BMP_temperature;BMP_pressure;BME280_temperature;BME280_humidity;BME280_pressure;Samples;Min_cycle;Max_cycle;Signal;HPM_P1;HPM_P2
2023/03/06 00:00:38;;;;;;;8.50;2.45;;;1.90;99.90;;;;;;6187459;23;20147;-88
2023/03/06 00:03:04;;;;;;;6.88;2.05;;;1.90;99.90;;;;;;6162446;23;20452;-88
2023/03/06 00:05:30;;;;;;;7.40;1.92;;;1.90;99.90;;;;;;6187259;23;20325;-88
2023/03/06 00:07:55;;;;;;;8.25;2.35;;;1.90;99.90;;;;;;6186851;23;20051;-88
2023/03/06 00:10:27;;;;;;;6.93;1.60;;;1.90;99.90;;;;;;6187391;23;20023;-88
2023/03/06 00:12:55;;;;;;;8.27;2.10;;;1.90;99.90;;;;;;6187384;23;20429;-88
2023/03/06 00:15:23;;;;;;;11.52;2.33;;;1.90;99.90;;;;;;6187397;23;20016;-88
2023/03/06 00:17:49;;;;;;;6.88;1.85;;;1.90;99.90;;;;;;6162178;23;20052;-88
2023/03/06 00:20:15;;;;;;;8.77;2.13;;;1.90;99.90;;;;;;6187023;23;20020;-88
2023/03/06 00:22:41;;;;;;;8.27;1.90;;;2.00;99.90;;;;;;6187333;23;20013;-88
2023/03/06 00:25:09;;;;;;;7.72;1.75;;;2.00;99.90;;;;;;6162551;23;20348;-88
2023/03/06 00:27:34;;;;;;;8.40;1.85;;;2.00;99.90;;;;;;6187130;23;20024;-88
2023/03/06 00:30:00;;;;;;;6.40;2.20;;;2.00;99.90;;;;;;6187314;23;20013;-88
2023/03/06 00:32:27;;;;;;;5.88;1.77;;;1.90;99.90;;;;;;6162601;23;20016;-88
2023/03/06 00:34:54;;;;;;;6.55;1.70;;;1.90;99.90;;;;;;6187126;23;20340;-88
2023/03/06 00:37:22;;;;;;;7.57;1.70;;;1.90;99.90;;;;;;6187301;23;20008;-88
2023/03/06 00:39:48;;;;;;;7.75;2.58;;;2.00;99.90;;;;;;6162322;23;20013;-88
2023/03/06 00:42:18;;;;;;;6.68;1.88;;;1.90;99.90;;;;;;6188634;23;20019;-88
2023/03/06 00:44:44;;;;;;;6.60;2.25;;;2.00;99.90;;;;;;6189173;23;20455;-88
2023/03/06 00:47:10;;;;;;;5.38;1.75;;;2.00;99.90;;;;;;6164220;23;20463;-88
2023/03/06 00:49:36;;;;;;;6.75;1.90;;;2.00;99.90;;;;;;6188724;23;20017;-89
2023/03/06 00:52:02;;;;;;;8.77;1.80;;;1.90;99.90;;;;;;6189163;23;20356;-87
2023/03/06 00:54:27;;;;;;;9.13;2.00;;;1.90;99.90;;;;;;6188786;23;20531;-87
2023/03/06 00:56:53;;;;;;;7.85;2.10;;;1.90;99.90;;;;;;6164179;23;20052;-88
2023/03/06 00:59:19;;;;;;;7.22;1.92;;;1.90;99.90;;;;;;6188516;23;20020;-88
2023/03/06 01:01:44;;;;;;;6.00;2.17;;;1.90;99.90;;;;;;6163896;23;20009;-88
2023/03/06 01:04:10;;;;;;;6.88;2.42;;;1.90;99.90;;;;;;6188668;23;20058;-87
2023/03/06 01:06:36;;;;;;;8.07;2.30;;;1.90;99.90;;;;;;6188813;23;20091;-87
2023/03/06 01:09:03;;;;;;;6.78;2.30;;;1.90;99.90;;;;;;6188335;23;20016;-87
2023/03/06 01:11:29;;;;;;;8.38;2.13;;;1.90;99.90;;;;;;6188665;23;20425;-88
2023/03/06 01:13:54;;;;;;;7.75;2.05;;;1.90;99.90;;;;;;6164047;23;20016;-88
2023/03/06 01:16:20;;;;;;;8.18;2.38;;;2.00;99.90;;;;;;6188913;23;20440;-88
2023/03/06 01:18:46;;;;;;;6.82;2.33;;;2.00;99.90;;;;;;6188209;23;20048;-88
2023/03/06 01:21:13;;;;;;;10.02;2.70;;;2.00;99.90;;;;;;6188424;23;20020;-86
2023/03/06 01:23:39;;;;;;;8.30;2.15;;;2.00;99.90;;;;;;6188521;23;20013;-88
2023/03/06 01:26:05;;;;;;;7.30;2.13;;;2.00;99.90;;;;;;6188843;23;20087;-88
2023/03/06 01:28:33;;;;;;;7.90;2.13;;;2.00;99.90;;;;;;6163630;23;20012;-88
2023/03/06 01:31:00;;;;;;;8.35;2.33;;;2.00;99.90;;;;;;6163952;23;20020;-87
2023/03/06 01:33:26;;;;;;;6.53;1.75;;;2.00;99.90;;;;;;6188515;23;20408;-88
2023/03/06 01:35:51;;;;;;;10.40;2.63;;;2.00;99.90;;;;;;6163364;23;20027;-88
2023/03/06 01:38:17;;;;;;;6.93;2.22;;;2.00;99.90;;;;;;6163240;23;20017;-88
2023/03/06 01:40:43;;;;;;;7.97;2.67;;;2.10;99.90;;;;;;6188620;23;20020;-88
2023/03/06 01:43:36;;;;;;;8.18;2.25;;;2.10;99.90;;;;;;6188349;23;20012;-88
2023/03/06 01:46:29;;;;;;;9.15;3.00;;;2.10;99.90;;;;;;6188333;23;20016;-87
2023/03/06 01:49:14;;;;;;;7.40;2.58;;;2.10;99.90;;;;;;6187758;23;20017;-87
2023/03/06 01:51:51;;;;;;;6.60;3.05;;;2.10;99.90;;;;;;6188361;23;20480;-87
2023/03/06 01:54:27;;;;;;;6.00;2.25;;;2.00;99.90;;;;;;6163083;23;20099;-88
2023/03/06 01:56:58;;;;;;;8.70;3.05;;;2.10;99.90;;;;;;6188418;23;20044;-87
2023/03/06 01:59:25;;;;;;;8.60;3.15;;;2.10;99.90;;;;;;6188155;23;20112;-88
2023/03/06 02:01:53;;;;;;;9.13;3.35;;;2.10;99.90;;;;;;6163502;23;20149;-88
2023/03/06 02:04:19;;;;;;;9.90;3.60;;;2.10;99.90;;;;;;6163636;23;20016;-88
2023/03/06 02:06:46;;;;;;;8.98;4.22;;;2.10;99.90;;;;;;6188402;23;20036;-88
2023/03/06 02:09:13;;;;;;;8.68;3.83;;;2.10;99.90;;;;;;6187991;23;20012;-89
2023/03/06 02:11:42;;;;;;;8.18;4.10;;;2.10;99.90;;;;;;6163674;23;20020;-89
2023/03/06 02:14:10;;;;;;;8.43;3.33;;;2.10;99.90;;;;;;6163682;23;20016;-89
2023/03/06 02:16:36;;;;;;;10.57;3.90;;;2.10;99.90;;;;;;6163670;23;20050;-88
2023/03/06 02:19:04;;;;;;;8.98;3.45;;;2.20;99.90;;;;;;6187963;23;20079;-89
2023/03/06 02:21:35;;;;;;;9.45;3.40;;;2.20;99.90;;;;;;6188302;23;20055;-89
2023/03/06 02:24:12;;;;;;;13.38;4.35;;;2.20;99.90;;;;;;6163271;23;20038;-89
2023/03/06 02:26:41;;;;;;;9.02;4.00;;;2.30;99.90;;;;;;6163491;23;20013;-89
2023/03/06 02:29:07;;;;;;;10.27;4.28;;;2.30;99.90;;;;;;6162986;23;20019;-89
2023/03/06 02:31:34;;;;;;;10.82;3.85;;;2.30;99.90;;;;;;6188167;23;20020;-89
2023/03/06 02:34:06;;;;;;;10.98;4.22;;;2.40;99.90;;;;;;6188226;23;20012;-89
2023/03/06 02:36:37;;;;;;;11.43;4.75;;;2.30;99.90;;;;;;6188049;23;20079;-89
2023/03/06 02:39:03;;;;;;;11.30;4.55;;;2.30;99.90;;;;;;6187965;23;20107;-89
2023/03/06 02:41:29;;;;;;;9.60;4.13;;;2.40;99.90;;;;;;6163173;23;20043;-89
2023/03/06 02:43:54;;;;;;;7.65;3.42;;;2.40;99.90;;;;;;6163408;23;20017;-89
2023/03/06 02:46:20;;;;;;;9.13;4.35;;;2.40;99.90;;;;;;6163316;23;20578;-89
2023/03/06 02:48:46;;;;;;;12.30;4.60;;;2.40;99.90;;;;;;6162909;23;20016;-89
2023/03/06 02:51:11;;;;;;;8.52;3.25;;;2.40;99.90;;;;;;6163210;23;20463;-88
2023/03/06 02:53:37;;;;;;;6.22;2.70;;;2.40;99.90;;;;;;6163274;23;20020;-88
2023/03/06 02:56:02;;;;;;;10.27;3.53;;;2.40;99.90;;;;;;6163237;23;20012;-89
2023/03/06 02:58:28;;;;;;;7.93;3.50;;;2.40;99.90;;;;;;6162352;23;20091;-88
2023/03/06 03:00:53;;;;;;;9.88;4.07;;;2.40;99.90;;;;;;6163260;23;20078;-88
2023/03/06 03:03:19;;;;;;;12.85;4.63;;;2.50;99.90;;;;;;6187948;23;20019;-88
2023/03/06 03:05:45;;;;;;;9.88;4.53;;;2.50;99.90;;;;;;6162732;23;20048;-89
2023/03/06 03:08:10;;;;;;;9.77;4.35;;;2.50;99.90;;;;;;6187483;23;20051;-88
2023/03/06 03:10:36;;;;;;;9.88;3.92;;;2.50;99.90;;;;;;6187857;23;20055;-89
2023/03/06 03:13:02;;;;;;;9.38;3.70;;;2.50;99.90;;;;;;6187886;23;20027;-88
2023/03/06 03:15:27;;;;;;;13.05;4.55;;;2.50;99.90;;;;;;6163184;23;20010;-88
2023/03/06 03:17:53;;;;;;;11.45;3.95;;;2.50;99.90;;;;;;6162607;23;20016;-89
2023/03/06 03:20:21;;;;;;;9.48;4.32;;;2.50;99.90;;;;;;6162988;23;20016;-89
2023/03/06 03:22:54;;;;;;;12.65;5.18;;;2.60;99.90;;;;;;6188023;23;20056;-89
2023/03/06 03:25:20;;;;;;;;;;;2.50;99.90;;;;;;6188481;23;20040;-88
2023/03/06 03:27:45;;;;;;;12.82;3.90;;;2.60;99.90;;;;;;6187172;23;19912;-89
2023/03/06 03:30:12;;;;;;;9.82;3.90;;;2.60;99.90;;;;;;6187929;23;20074;-88
2023/03/06 03:32:37;;;;;;;8.93;4.13;;;2.60;99.90;;;;;;6206323;23;20029;-88
2023/03/06 03:35:05;;;;;;;9.02;3.47;;;2.60;99.90;;;;;;6166232;23;20024;-88
2023/03/06 03:37:30;;;;;;;8.77;4.10;;;2.60;99.90;;;;;;6190618;23;20017;-89
2023/03/06 03:39:56;;;;;;;6.18;3.03;;;2.60;99.90;;;;;;6175186;23;20495;-88
2023/03/06 03:42:21;;;;;;;9.63;4.20;;;2.60;99.90;;;;;;6203633;23;20024;-88
2023/03/06 03:44:47;;;;;;;9.55;4.35;;;2.60;99.90;;;;;;6188238;23;20404;-89
2023/03/06 03:47:13;;;;;;;9.43;4.68;;;2.60;99.90;;;;;;6188193;23;20013;-89
2023/03/06 03:49:38;;;;;;;12.43;6.10;;;2.60;99.90;;;;;;6163085;23;20407;-89
2023/03/06 03:52:04;;;;;;;12.60;5.43;;;2.60;99.90;;;;;;6188130;23;20013;-89
2023/03/06 03:54:30;;;;;;;10.60;5.47;;;2.60;99.90;;;;;;6163056;23;20066;-89
2023/03/06 03:56:55;;;;;;;12.80;5.25;;;2.70;99.90;;;;;;6187705;23;20020;-89
2023/03/06 03:59:21;;;;;;;12.68;5.65;;;2.70;99.90;;;;;;6162543;23;20417;-89
2023/03/06 04:01:47;;;;;;;9.60;4.05;;;2.70;99.90;;;;;;6187669;23;20063;-89
2023/03/06 04:04:12;;;;;;;11.23;5.85;;;2.70;99.90;;;;;;6187668;23;20023;-89
2023/03/06 04:06:38;;;;;;;11.25;5.18;;;2.70;99.90;;;;;;6187785;23;20005;-89
2023/03/06 04:09:04;;;;;;;10.43;4.57;;;2.80;99.90;;;;;;6187298;23;20066;-89
2023/03/06 04:11:30;;;;;;;9.45;4.97;;;2.80;99.90;;;;;;6187650;23;20395;-89
2023/03/06 04:13:56;;;;;;;8.20;4.28;;;2.80;99.90;;;;;;6187571;23;20059;-89
2023/03/06 04:16:21;;;;;;;9.65;4.78;;;2.80;99.90;;;;;;6188317;23;20039;-89
2023/03/06 04:18:47;;;;;;;11.52;5.28;;;2.80;99.90;;;;;;6189325;23;20016;-89
2023/03/06 04:21:13;;;;;;;9.85;5.28;;;2.80;99.90;;;;;;6189388;23;20472;-89
2023/03/06 04:23:39;;;;;;;9.07;3.83;;;2.90;99.90;;;;;;6164657;23;20059;-89
2023/03/06 04:26:04;;;;;;;6.75;3.40;;;2.90;99.90;;;;;;6189440;23;20012;-89
2023/03/06 04:28:30;;;;;;;9.95;4.90;;;2.90;99.90;;;;;;6163990;23;20019;-89
2023/03/06 04:30:56;;;;;;;13.48;5.43;;;2.90;99.90;;;;;;6189545;23;20095;-89
2023/03/06 04:33:22;;;;;;;9.73;4.40;;;2.90;99.90;;;;;;6189316;23;20021;-89
2023/03/06 04:35:47;;;;;;;12.02;5.72;;;2.90;99.90;;;;;;6189482;23;20475;-89
2023/03/06 04:38:13;;;;;;;10.43;4.68;;;2.90;99.90;;;;;;6164118;23;20512;-88
2023/03/06 04:40:39;;;;;;;10.07;5.10;;;2.90;99.90;;;;;;6189210;23;20021;-89
2023/03/06 04:43:05;;;;;;;10.70;4.93;;;3.00;99.90;;;;;;6164482;23;20017;-89
2023/03/06 04:45:32;;;;;;;7.10;3.17;;;3.00;99.90;;;;;;6164312;23;20016;-89
2023/03/06 04:47:58;;;;;;;5.18;1.30;;;3.00;99.90;;;;;;6188999;23;20043;-89
2023/03/06 04:50:25;;;;;;;3.30;1.20;;;3.10;99.90;;;;;;6189297;23;20021;-89
2023/03/06 04:52:51;;;;;;;3.50;1.15;;;3.10;99.90;;;;;;6189305;23;20096;-89
2023/03/06 04:55:17;;;;;;;4.65;1.20;;;3.00;99.90;;;;;;6189298;23;20024;-89
2023/03/06 04:57:44;;;;;;;3.72;1.10;;;3.00;99.90;;;;;;6163911;23;20017;-88
2023/03/06 05:00:19;;;;;;;2.13;0.90;;;3.00;99.90;;;;;;6189181;23;20016;-88
2023/03/06 05:02:45;;;;;;;2.95;1.00;;;3.00;99.90;;;;;;6189268;23;20040;-89
2023/03/06 05:05:12;;;;;;;1.35;0.80;;;3.00;99.90;;;;;;6189248;23;20013;-89
2023/03/06 05:07:38;;;;;;;1.90;1.00;;;3.00;99.90;;;;;;6188572;23;20035;-89
2023/03/06 05:10:05;;;;;;;1.92;0.98;;;2.90;99.90;;;;;;6189135;23;20396;-89
2023/03/06 05:12:30;;;;;;;2.70;1.17;;;3.00;99.90;;;;;;6164276;23;20527;-89
2023/03/06 05:14:57;;;;;;;2.47;1.15;;;2.90;99.90;;;;;;6189013;23;20051;-89
2023/03/06 05:17:22;;;;;;;2.78;1.10;;;2.90;99.90;;;;;;6188863;23;20020;-90
2023/03/06 05:19:48;;;;;;;3.15;1.23;;;2.90;99.90;;;;;;6188870;23;20021;-89
2023/03/06 05:22:14;;;;;;;2.58;0.93;;;2.90;99.90;;;;;;6188972;23;20017;-89
2023/03/06 05:24:40;;;;;;;2.42;1.17;;;2.90;99.90;;;;;;6188884;23;20479;-89
2023/03/06 05:27:06;;;;;;;1.75;1.02;;;2.90;99.90;;;;;;6188614;23;20044;-89
2023/03/06 05:29:31;;;;;;;2.88;1.15;;;2.90;99.90;;;;;;6188183;23;20013;-89
2023/03/06 05:31:57;;;;;;;2.33;0.93;;;2.90;99.90;;;;;;6189064;23;20024;-89
2023/03/06 05:34:23;;;;;;;1.88;1.00;;;2.90;99.90;;;;;;6163857;23;20009;-89
2023/03/06 05:36:48;;;;;;;2.60;1.00;;;2.80;99.90;;;;;;6164352;23;20558;-88
2023/03/06 05:39:14;;;;;;;4.47;1.23;;;2.80;99.90;;;;;;6188276;23;20019;-88
2023/03/06 05:41:40;;;;;;;2.15;0.82;;;2.80;99.90;;;;;;6163946;23;20356;-88
2023/03/06 05:44:05;;;;;;;1.67;0.90;;;2.80;99.90;;;;;;6188754;23;20013;-88
2023/03/06 05:46:31;;;;;;;2.10;0.93;;;2.80;99.90;;;;;;6163736;23;20095;-88
2023/03/06 05:48:57;;;;;;;1.55;0.95;;;2.80;99.90;;;;;;6187882;23;20017;-88
2023/03/06 05:51:23;;;;;;;2.03;0.88;;;2.80;99.90;;;;;;6164050;23;20013;-88
2023/03/06 05:53:49;;;;;;;2.15;0.82;;;2.80;99.90;;;;;;6163885;23;20514;-88
2023/03/06 05:56:15;;;;;;;3.53;1.00;;;2.80;99.90;;;;;;6163982;23;20016;-88
2023/03/06 05:58:41;;;;;;;2.90;1.10;;;2.80;99.90;;;;;;6163263;23;20405;-88
2023/03/06 06:01:09;;;;;;;2.40;0.90;;;2.80;99.90;;;;;;6188164;23;20025;-88
2023/03/06 06:03:35;;;;;;;1.10;0.80;;;2.80;99.90;;;;;;6187930;23;20023;-88
2023/03/06 06:06:07;;;;;;;1.85;0.80;;;2.80;99.90;;;;;;6163940;23;20013;-88
2023/03/06 06:08:32;;;;;;;3.17;1.00;;;2.80;99.90;;;;;;6160612;23;20017;-88
2023/03/06 06:10:58;;;;;;;1.50;0.90;;;2.70;99.90;;;;;;6161615;23;20104;-88
2023/03/06 06:13:24;;;;;;;3.25;1.10;;;2.70;99.90;;;;;;6186812;23;20017;-87
2023/03/06 06:15:49;;;;;;;2.72;0.90;;;2.70;99.90;;;;;;6162091;23;20020;-87
2023/03/06 06:18:15;;;;;;;2.28;1.00;;;2.70;99.90;;;;;;6186293;23;20013;-87
2023/03/06 06:20:41;;;;;;;3.60;1.00;;;2.70;99.90;;;;;;6187071;23;20040;-88
2023/03/06 06:23:08;;;;;;;2.38;0.98;;;2.60;99.90;;;;;;6186796;23;20028;-88
2023/03/06 06:25:34;;;;;;;2.42;0.80;;;2.60;99.90;;;;;;6162333;23;20448;-87
2023/03/06 06:28:03;;;;;;;1.65;0.82;;;2.60;99.90;;;;;;6186442;23;20019;-89
2023/03/06 06:30:29;;;;;;;1.80;0.95;;;2.50;99.90;;;;;;6162461;23;20051;-88
2023/03/06 06:32:55;;;;;;;2.65;0.90;;;2.50;99.90;;;;;;6162354;23;20419;-89
2023/03/06 06:35:21;;;;;;;2.45;0.98;;;2.40;99.90;;;;;;6187592;23;20020;-88
2023/03/06 06:37:47;;;;;;;5.10;1.05;;;2.40;99.90;;;;;;6161852;23;20028;-88
2023/03/06 06:40:13;;;;;;;2.60;1.13;;;2.40;99.90;;;;;;6162609;23;20020;-88
2023/03/06 06:42:39;;;;;;;1.90;0.90;;;2.30;99.90;;;;;;6187482;23;20448;-88
2023/03/06 06:45:05;;;;;;;2.80;1.20;;;2.30;99.90;;;;;;6161979;23;20016;-87
2023/03/06 06:47:32;;;;;;;4.93;1.10;;;2.30;99.90;;;;;;6186778;23;20384;-88
2023/03/06 06:49:58;;;;;;;3.45;1.30;;;2.30;99.90;;;;;;6186920;23;20023;-88
2023/03/06 06:52:24;;;;;;;5.10;1.42;;;2.30;99.90;;;;;;6186735;23;20008;-88
2023/03/06 06:54:50;;;;;;;3.80;1.30;;;2.30;99.90;;;;;;6162860;23;20136;-88
2023/03/06 06:57:16;;;;;;;3.47;1.20;;;2.30;99.90;;;;;;6188033;23;20094;-88
2023/03/06 06:59:42;;;;;;;3.33;1.50;;;2.30;99.90;;;;;;6162853;23;20034;-87
2023/03/06 07:02:14;;;;;;;4.03;1.27;;;2.30;99.90;;;;;;6188032;23;20099;-88
2023/03/06 07:04:40;;;;;;;3.05;1.17;;;2.30;99.90;;;;;;6188042;23;20012;-87
2023/03/06 07:07:06;;;;;;;2.63;1.13;;;2.40;99.90;;;;;;6188129;23;20085;-87
2023/03/06 07:09:31;;;;;;;4.85;1.10;;;2.40;99.90;;;;;;6187595;23;20446;-88
2023/03/06 07:11:57;;;;;;;2.72;1.10;;;2.40;99.90;;;;;;6187922;23;20012;-88
2023/03/06 07:14:23;;;;;;;3.05;1.10;;;2.40;99.90;;;;;;6163132;23;20021;-88
2023/03/06 07:16:49;;;;;;;5.40;1.30;;;2.40;99.90;;;;;;6163211;23;20360;-89
2023/03/06 07:19:14;;;;;;;2.40;1.05;;;2.50;99.90;;;;;;6162682;23;20491;-88
2023/03/06 07:21:40;;;;;;;3.35;1.10;;;2.50;99.90;;;;;;6187716;23;20059;-88
2023/03/06 07:24:05;;;;;;;3.20;1.08;;;2.50;99.90;;;;;;6163187;23;20024;-88
2023/03/06 07:26:31;;;;;;;3.95;1.50;;;2.50;99.90;;;;;;6187966;23;20016;-88
2023/03/06 07:28:57;;;;;;;5.60;1.40;;;2.50;99.90;;;;;;6187358;23;20459;-87
2023/03/06 07:31:25;;;;;;;3.70;1.38;;;2.60;99.90;;;;;;6163060;23;20017;-87
2023/03/06 07:33:52;;;;;;;3.45;1.00;;;2.60;99.90;;;;;;6163156;23;20020;-87
2023/03/06 07:36:19;;;;;;;3.40;1.33;;;2.60;99.90;;;;;;6187916;23;20071;-88
2023/03/06 07:38:44;;;;;;;4.03;1.20;;;2.60;99.90;;;;;;6162639;23;20091;-88
2023/03/06 07:41:12;;;;;;;1.73;0.90;;;2.60;99.90;;;;;;6187856;23;20048;-88
2023/03/06 07:43:43;;;;;;;2.65;1.20;;;2.60;99.90;;;;;;6163031;23;20083;-88
2023/03/06 07:46:09;;;;;;;4.55;1.27;;;2.60;99.90;;;;;;6187618;23;20036;-88
2023/03/06 07:48:36;;;;;;;2.15;0.85;;;2.60;99.90;;;;;;6162746;23;20020;-88
2023/03/06 07:51:04;;;;;;;2.47;0.93;;;2.60;99.90;;;;;;6188247;23;20464;-88
2023/03/06 07:53:30;;;;;;;1.85;0.93;;;2.60;99.90;;;;;;6164912;23;20017;-88
2023/03/06 07:55:56;;;;;;;4.75;1.42;;;2.60;99.90;;;;;;6165081;23;20641;-89
2023/03/06 07:58:22;;;;;;;3.28;1.10;;;2.60;99.90;;;;;;6189555;23;20060;-89
2023/03/06 08:00:48;;;;;;;3.92;1.20;;;2.70;99.90;;;;;;6165035;23;20044;-89
2023/03/06 08:03:14;;;;;;;3.22;1.00;;;2.70;99.90;;;;;;6189985;23;20079;-90
2023/03/06 08:05:40;;;;;;;3.88;1.17;;;2.70;99.90;;;;;;6189901;23;20391;-89
2023/03/06 08:08:06;;;;;;;3.45;1.20;;;2.70;99.90;;;;;;6189634;23;20444;-89
2023/03/06 08:10:32;;;;;;;4.38;1.23;;;2.80;99.90;;;;;;6189706;23;20058;-90
2023/03/06 08:12:57;;;;;;;4.00;1.23;;;2.80;99.90;;;;;;6164998;23;20351;-90
2023/03/06 08:15:23;;;;;;;1.48;0.80;;;2.80;99.90;;;;;;6189837;23;20044;-90
2023/03/06 08:17:50;;;;;;;2.92;1.20;;;2.80;99.90;;;;;;6164512;23;20095;-89
2023/03/06 08:20:17;;;;;;;2.95;1.10;;;2.80;99.90;;;;;;6189480;23;20095;-90
2023/03/06 08:22:43;;;;;;;2.67;0.90;;;2.80;99.90;;;;;;6164934;23;20351;-89
2023/03/06 08:25:12;;;;;;;2.78;1.00;;;2.90;99.90;;;;;;6162348;23;20004;-89
2023/03/06 08:27:38;;;;;;;3.42;1.13;;;2.90;99.90;;;;;;6187838;23;20008;-89
2023/03/06 08:30:05;;;;;;;3.90;1.02;;;3.00;99.90;;;;;;6188706;23;20017;-90
2023/03/06 08:32:30;;;;;;;2.55;1.00;;;3.10;99.90;;;;;;6188707;23;20356;-90
2023/03/06 08:34:56;;;;;;;4.80;1.38;;;3.20;99.90;;;;;;6164033;23;20016;-90
2023/03/06 08:37:21;;;;;;;4.28;1.23;;;3.30;99.90;;;;;;6163964;23;20440;-90
2023/03/06 08:39:47;;;;;;;4.22;1.40;;;3.40;99.90;;;;;;6188920;23;20072;-89
2023/03/06 08:42:14;;;;;;;2.42;0.98;;;3.50;99.90;;;;;;6189066;23;20044;-91
2023/03/06 08:44:40;;;;;;;2.85;1.00;;;3.60;99.90;;;;;;6188586;23;20016;-90
2023/03/06 08:47:06;;;;;;;3.58;1.00;;;3.70;99.90;;;;;;6163764;23;20020;-90
2023/03/06 08:49:31;;;;;;;4.40;1.27;;;3.70;99.90;;;;;;6162875;23;20009;-90
2023/03/06 08:51:57;;;;;;;5.43;1.20;;;3.90;99.90;;;;;;6188783;23;20024;-90
2023/03/06 08:54:22;;;;;;;3.88;1.17;;;4.00;99.90;;;;;;6188403;23;20027;-90
2023/03/06 08:56:48;;;;;;;2.78;1.08;;;4.10;99.90;;;;;;6162981;23;20507;-90
2023/03/06 08:59:14;;;;;;;3.78;1.27;;;4.20;99.90;;;;;;6162210;23;20020;-90
2023/03/06 09:01:40;;;;;;;4.53;1.27;;;4.40;99.90;;;;;;6162464;23;20020;-90
2023/03/06 09:04:08;;;;;;;4.80;1.10;;;4.50;99.90;;;;;;6187661;23;20017;-90
2023/03/06 09:06:38;;;;;;;3.47;1.02;;;4.60;99.90;;;;;;6187037;23;20013;-90
2023/03/06 09:09:04;;;;;;;3.50;1.17;;;4.80;99.90;;;;;;6187016;23;20482;-91
2023/03/06 09:11:30;;;;;;;3.97;1.42;;;4.90;99.90;;;;;;6187219;23;20459;-91
2023/03/06 09:13:56;;;;;;;5.95;1.35;;;5.00;99.90;;;;;;6162649;23;20023;-90
2023/03/06 09:16:23;;;;;;;4.13;1.27;;;5.00;99.90;;;;;;6162857;23;20013;-89
2023/03/06 09:18:51;;;;;;;3.50;1.10;;;5.00;99.90;;;;;;6186898;23;20027;-90
2023/03/06 09:21:18;;;;;;;5.47;1.13;;;5.10;99.90;;;;;;6188399;23;20021;-90
2023/03/06 09:23:43;;;;;;;2.65;0.75;;;5.10;99.90;;;;;;6188625;23;20083;-90
2023/03/06 09:26:11;;;;;;;2.33;0.68;;;5.20;99.90;;;;;;6163306;23;20389;-90
2023/03/06 09:28:38;;;;;;;2.75;0.70;;;5.40;99.90;;;;;;6187885;23;20090;-91
2023/03/06 09:31:13;;;;;;;3.35;0.93;;;5.50;99.90;;;;;;6188488;23;20016;-90
2023/03/06 09:33:39;;;;;;;2.60;0.88;;;5.60;99.90;;;;;;6192041;23;20017;-89
2023/03/06 09:36:06;;;;;;;1.55;0.68;;;5.80;99.90;;;;;;6207538;23;20479;-90
2023/03/06 09:38:33;;;;;;;2.97;0.80;;;5.90;99.90;;;;;;6165469;23;20417;-91
2023/03/06 09:41:26;;;;;;;5.40;1.02;;;6.10;99.90;;;;;;6167319;23;20017;-90
2023/03/06 09:44:21;;;;;;;2.60;0.68;;;6.30;99.90;;;;;;6172159;23;20058;-90
2023/03/06 09:47:19;;;;;;;2.50;0.68;;;6.40;99.90;;;;;;6164739;23;20031;-91
2023/03/06 09:50:00;;;;;;;3.60;0.85;;;6.50;99.90;;;;;;6188803;23;20352;-91
2023/03/06 09:52:35;;;;;;;2.40;0.70;;;6.60;99.90;;;;;;6188501;23;20051;-90
2023/03/06 09:55:03;;;;;;;2.08;0.63;;;6.70;99.90;;;;;;6163743;23;20106;-92
2023/03/06 09:58:00;;;;;;;2.13;0.40;;;6.80;99.90;;;;;;6163555;23;20072;-91
2023/03/06 10:00:40;;;;;;;2.63;0.57;;;6.90;99.90;;;;;;6163193;23;20019;-91
2023/03/06 10:03:37;;;;;;;1.33;0.60;;;7.00;99.90;;;;;;6188622;23;20016;-92
2023/03/06 10:06:11;;;;;;;3.75;0.98;;;7.10;99.90;;;;;;6186337;23;20024;-91
2023/03/06 10:08:56;;;;;;;3.92;0.93;;;7.20;99.90;;;;;;6162860;23;20463;-92
2023/03/06 10:11:38;;;;;;;3.05;0.70;;;7.20;99.90;;;;;;6163451;23;20026;-92
2023/03/06 10:14:13;;;;;;;2.78;0.60;;;7.30;99.90;;;;;;6188031;23;20023;-92
2023/03/06 10:16:39;;;;;;;1.38;0.50;;;7.50;99.90;;;;;;6163682;23;20017;-92
2023/03/06 10:19:13;;;;;;;2.80;0.80;;;7.70;99.90;;;;;;6163085;23;20023;-92
2023/03/06 10:21:48;;;;;;;3.28;0.52;;;7.80;99.90;;;;;;6187944;23;20019;-92
2023/03/06 10:24:36;;;;;;;2.90;0.65;;;7.90;99.90;;;;;;6162914;23;20464;-91
2023/03/06 10:27:09;;;;;;;4.65;0.70;;;8.10;99.90;;;;;;6188308;23;20104;-91
2023/03/06 10:29:43;;;;;;;2.53;0.50;;;8.30;99.90;;;;;;6162917;23;20017;-92
2023/03/06 10:32:19;;;;;;;4.38;0.70;;;8.50;99.90;;;;;;6163275;23;20027;-93
2023/03/06 10:34:44;;;;;;;4.13;0.63;;;8.60;99.90;;;;;;6163080;23;20455;-92
2023/03/06 10:37:21;;;;;;;2.72;0.50;;;8.70;99.90;;;;;;6163218;23;20478;-91
2023/03/06 10:40:02;;;;;;;3.03;0.50;;;8.90;99.40;;;;;;6162674;23;20020;-91
2023/03/06 10:42:28;;;;;;;3.05;0.52;;;9.00;96.50;;;;;;6162565;23;20013;-92
2023/03/06 10:45:12;;;;;;;4.80;0.95;;;9.20;97.60;;;;;;6162410;23;20013;-92
2023/03/06 10:47:39;;;;;;;3.88;0.60;;;9.20;91.80;;;;;;6162210;23;20020;-92
2023/03/06 10:50:26;;;;;;;2.50;0.73;;;9.30;93.10;;;;;;6187852;23;20017;-93
2023/03/06 10:53:13;;;;;;;4.22;0.50;;;9.10;86.40;;;;;;6163120;23;20017;-92
2023/03/06 10:55:38;;;;;;;1.45;0.80;;;8.80;83.60;;;;;;6188050;23;20014;-92
2023/03/06 10:58:25;;;;;;;4.50;1.08;;;8.70;83.20;;;;;;6162663;23;20048;-92
2023/03/06 11:00:59;;;;;;;3.20;0.85;;;8.60;82.40;;;;;;6187198;23;20394;-92
2023/03/06 11:03:25;;;;;;;2.92;0.63;;;8.50;84.30;;;;;;6187971;23;20468;-93
2023/03/06 11:06:13;;;;;;;3.42;0.60;;;8.60;85.80;;;;;;6187566;23;20067;-92
2023/03/06 11:08:41;;;;;;;4.15;0.75;;;8.60;84.30;;;;;;6162632;23;20016;-93
2023/03/06 11:11:11;;;;;;;2.88;0.50;;;8.60;82.70;;;;;;6163146;23;20150;-92
2023/03/06 11:13:39;;;;;;;4.10;0.70;;;8.60;82.70;;;;;;6163054;23;20025;-92
2023/03/06 11:16:29;;;;;;;3.05;0.57;;;8.70;82.50;;;;;;6162994;23;20059;-93
2023/03/06 11:18:54;;;;;;;3.33;0.68;;;8.80;80.60;;;;;;6187433;23;20519;-93
2023/03/06 11:21:30;;;;;;;4.53;0.70;;;8.90;81.90;;;;;;6187391;23;20067;-93
2023/03/06 11:24:02;;;;;;;6.60;1.05;;;9.00;80.30;;;;;;6187630;23;20101;-92
2023/03/06 11:26:47;;;;;;;;;;;9.00;80.00;;;;;;6163188;23;20012;-92
2023/03/06 11:29:46;;;;;;;1.40;0.43;;;9.10;77.20;;;;;;6187073;23;20350;-91
2023/03/06 11:32:23;;;;;;;2.00;0.52;;;9.10;78.20;;;;;;6162473;23;20028;-92
2023/03/06 11:35:01;;;;;;;5.45;0.70;;;9.00;77.20;;;;;;6187521;23;20027;-92
2023/03/06 11:37:45;;;;;;;2.42;0.50;;;8.90;77.80;;;;;;6162343;23;20020;-92
2023/03/06 11:40:14;;;;;;;4.40;0.55;;;8.80;76.50;;;;;;6162756;23;20464;-91
2023/03/06 11:42:51;;;;;;;2.55;0.57;;;8.70;76.10;;;;;;6161813;23;20087;-92
2023/03/06 11:45:36;;;;;;;2.33;0.55;;;8.50;75.30;;;;;;6187304;23;20009;-91
2023/03/06 11:48:33;;;;;;;2.83;0.63;;;8.40;73.60;;;;;;6187089;23;20043;-91
2023/03/06 11:51:25;;;;;;;2.05;0.47;;;8.30;74.80;;;;;;6152045;23;20020;-92
2023/03/06 11:53:52;;;;;;;2.55;0.60;;;8.30;75.10;;;;;;6187522;23;20455;-93
2023/03/06 11:56:18;;;;;;;2.63;0.70;;;8.50;76.10;;;;;;6162421;23;20017;-92
2023/03/06 11:59:02;;;;;;;2.70;0.68;;;8.30;74.60;;;;;;6162634;23;20055;-89
2023/03/06 12:01:37;;;;;;;3.47;0.73;;;8.40;74.70;;;;;;6186878;23;20024;-91
2023/03/06 12:04:26;;;;;;;4.18;0.75;;;8.40;75.60;;;;;;6162580;23;20044;-90
2023/03/06 12:06:55;;;;;;;1.50;0.52;;;8.60;74.30;;;;;;6187221;23;20017;-90
2023/03/06 12:09:36;;;;;;;1.55;0.63;;;8.60;75.10;;;;;;6187311;23;20455;-91
2023/03/06 12:12:17;;;;;;;3.42;0.82;;;8.60;74.80;;;;;;6187425;23;20055;-90
2023/03/06 12:15:19;;;;;;;2.38;0.70;;;8.60;74.50;;;;;;6162208;23;20096;-90
2023/03/06 12:17:56;;;;;;;3.15;0.75;;;8.50;73.70;;;;;;6161257;23;20020;-91
2023/03/06 12:20:51;;;;;;;2.03;0.60;;;8.30;73.50;;;;;;6163028;23;20020;-91
2023/03/06 12:23:42;;;;;;;2.20;0.65;;;8.20;73.80;;;;;;6187698;23;20048;-91
2023/03/06 12:26:45;;;;;;;2.35;0.85;;;8.30;73.90;;;;;;6187574;23;20018;-90
2023/03/06 12:29:40;;;;;;;2.05;0.73;;;8.30;73.80;;;;;;6162543;23;20016;-91
2023/03/06 12:32:20;;;;;;;3.00;0.70;;;8.20;73.90;;;;;;6188016;23;20452;-91
2023/03/06 12:35:03;;;;;;;3.67;0.70;;;8.10;73.80;;;;;;6162870;23;20020;-90
2023/03/06 12:37:32;;;;;;;1.13;0.60;;;8.20;74.20;;;;;;6188166;23;20067;-90
2023/03/06 12:40:35;;;;;;;2.58;0.70;;;8.30;75.10;;;;;;6162013;23;20020;-90
2023/03/06 12:43:26;;;;;;;4.13;0.80;;;8.50;74.70;;;;;;6188383;23;20020;-90
2023/03/06 12:45:58;;;;;;;3.35;0.90;;;8.60;72.60;;;;;;6164079;23;20498;-92
2023/03/06 12:48:32;;;;;;;3.38;0.77;;;8.70;72.20;;;;;;6188729;23;20009;-92
2023/03/06 12:50:58;;;;;;;3.25;1.17;;;8.80;71.90;;;;;;6164279;23;20055;-91
2023/03/06 12:53:26;;;;;;;4.90;0.93;;;8.90;72.10;;;;;;6189214;23;20024;-91
2023/03/06 12:55:53;;;;;;;3.08;0.80;;;8.80;71.40;;;;;;6163855;23;20020;-91
2023/03/06 12:58:28;;;;;;;2.55;0.70;;;8.60;71.50;;;;;;6163787;23;20016;-91
2023/03/06 13:01:24;;;;;;;2.22;0.85;;;8.50;71.00;;;;;;6188310;23;20059;-92
2023/03/06 13:03:57;;;;;;;4.28;0.88;;;8.50;70.90;;;;;;6163918;23;20013;-91
2023/03/06 13:06:36;;;;;;;2.30;0.80;;;8.50;71.90;;;;;;6163823;23;20091;-91
2023/03/06 13:09:07;;;;;;;4.90;0.70;;;8.40;72.20;;;;;;6188548;23;20348;-90
2023/03/06 13:11:52;;;;;;;2.92;0.73;;;8.30;71.70;;;;;;6164029;23;20017;-91